Historyczne dane pomiarowe

Dodano dane terminowe – wersja testowa.

Dane z okresu 1951-2019

Wersja bazy: 1.34 [2019-03-16, lista zmian], aktualizacja planowana na 2019-04-15

Dane meteo z obszaru Polski uzyskane na podstawie danych udostępnionych przez Instytut Meteorologii i Gospodarki Wodnej – Państwowy Instytut Badawczy.

 

Wybierz Datę:    

       

TemperaturaWilgotnośćWiatrCiśnienieOpadyŚniegCzas trwania zjawisk
 Stacja t tx tn tng RH VA  wxwx mslp ppp RRR   cm mm wxwxwxwxwxwxwx
1961-08-14 11.9 19.4 6.5 6.5-- 4.3 0.7---- 0.0------------
1961-08-13 11.7 17.0 10.7 12.5-- 8.0 1.0---- 9.6------------
1961-08-12 18.3 25.1 13.3 12.9-- 6.3 1.3---- 17.2------------
1961-08-11 24.5 34.1 14.6 13.8-- 1.7 1.7---- 0.0------------
1961-08-10 22.5 32.2 16.1 15.5-- 1.0 0.3---- 0.0------------
1961-08-09 21.4 31.3 14.5 13.7-- 2.7 0.3---- 0.0------------
1961-08-08 20.2 29.4 17.1 10.4-- 3.0 0.3---- 0.0------------
1961-08-07 23.5 30.6 12.5 11.4-- 2.7 0.7---- 0.0------------
1961-08-06 19.0 31.1 8.9 8.5-- 0.3 0.7---- 0.0------------
1961-08-05 16.2 24.6 11.8 11.7-- 3.0 0.7---- 0.0------------
1961-08-04 14.2 19.3 9.9 9.3-- 4.7 0.0---- 0.0------------
1961-08-03 15.8 22.1 10.4 9.5-- 7.0 0.7---- 6.7------------
1961-08-02 16.4 26.9 5.4 5.1-- 0.7 0.7---- 0.0------------
1961-08-01 12.9 21.4 5.4 5.2-- 2.7 1.0---- 0.0------------
1961-07-31 11.8 16.9 9.3 9.3-- 6.3 1.0---- 0.0------------
1961-07-30 10.4 12.4 9.6 9.6-- 8.0 0.7---- 25.1------------
1961-07-29 12.5 19.2 11.1 13.7-- 8.0 0.0---- 35.4------------
1961-07-28 20.0 27.3 13.6 12.6-- 5.3 0.7---- 3.9------------
1961-07-27 17.8 27.1 7.4 14.3-- 2.7 1.7---- 0.0------------
1961-07-26 14.1 22.7 8.2 6.8-- 2.0 1.0---- 0.0------------
1961-07-25 12.9 16.3 10.1 9.8-- 8.0 1.0---- 0.0------------
1961-07-24 13.7 17.3 12.3 12.2-- 8.0 0.7---- 0.0------------
1961-07-23 14.6 20.6 8.0 6.7-- 4.7 0.7---- 0.0------------
1961-07-22 13.9 19.1 9.9 8.3-- 5.0 1.7---- 0.0------------
1961-07-21 13.9 19.9 6.1 5.5-- 3.3 1.3---- 0.2------------
1961-07-20 12.3 15.8 8.5 7.8-- 8.0 0.0---- 11.5------------
1961-07-19 12.4 20.1 8.4 7.5-- 6.3 0.3---- 5.6------------
1961-07-18 13.2 20.1 5.5 4.5-- 5.0 0.3---- 1.6------------
1961-07-17 15.0 21.6 11.6 11.3-- 4.7 0.3---- 0.0------------
1961-07-16 17.2 22.3 13.3 12.3-- 3.0 1.7---- 6.9------------
1961-07-15 15.8 23.6 7.4 6.5-- 5.0 0.3---- 1.7------------
1961-07-14 11.9 19.3 8.3 9.5-- 3.7 2.3---- 1.3------------
1961-07-13 18.9 26.9 11.7 10.3-- 2.0 1.0---- 9.9------------
1961-07-12 17.3 27.4 7.1 6.0-- 2.7 0.3---- 0.0------------
1961-07-11 13.5 21.4 7.7 6.8-- 2.3 1.3---- 0.0------------
1961-07-10 13.3 20.3 8.2 7.1-- 6.3 1.0---- 3.1------------
1961-07-09 13.6 21.8 9.2 8.1-- 2.7 0.3---- 0.9------------
1961-07-08 13.7 20.3 7.1 6.1-- 4.0 0.3---- 0.0------------
1961-07-07 11.7 17.6 2.9 2.0-- 4.0 0.3---- 0.0------------
1961-07-06 10.5 17.5 4.4 4.1-- 3.0 1.0---- 0.0------------
1961-07-05 11.7 19.0 8.8 13.5-- 4.7 0.7---- 2.2------------
1961-07-04 19.8 29.6 10.4 9.0-- 4.0 0.3---- 15.5------------
1961-07-03 19.3 30.3 7.4 6.5-- 0.0 0.7---- 0.0------------
1961-07-02 16.9 27.6 7.9 7.0-- 0.0 0.7---- 0.0------------
1961-07-01 16.8 26.1 6.8 5.9-- 0.3 1.0---- 0.0------------
1961-06-30 14.7 22.7 7.3 6.5-- 2.7 0.3---- 0.0------------
1961-06-29 13.8 19.2 5.4 4.5-- 4.3 0.7---- 0.0------------
1961-06-28 13.4 18.8 11.8 14.3-- 6.7 1.3---- 2.9------------
1961-06-27 21.5 30.8 11.4 10.3-- 1.3 1.0---- 8.9------------
1961-06-26 19.6 30.6 9.3 8.3-- 2.7 0.3---- 0.0------------
1961-06-25 17.8 28.8 8.0 7.1-- 1.0 0.7---- 0.0------------
1961-06-24 16.3 25.3 8.0 7.3-- 1.3 1.7---- 0.0------------
1961-06-23 16.8 23.1 13.8 12.4-- 3.7 0.7---- 0.0------------
1961-06-22 19.9 25.8 7.4 6.7-- 2.7 0.7---- 7.5------------
1961-06-21 15.2 24.1 3.4 3.5-- 2.3 0.7---- 0.0------------
1961-06-20 12.5 19.4 8.4 14.0-- 4.0 0.7---- 0.0------------
1961-06-19 19.5 28.8 9.2 8.5-- 2.7 1.7---- 0.0------------
1961-06-18 16.4 25.4 6.3 5.8-- 0.7 1.0---- 0.0------------
1961-06-17 13.8 22.2 3.8 3.5-- 1.7 0.7---- 0.0------------
1961-06-16 12.8 20.7 6.3 5.8-- 2.3 1.0---- 0.0------------
558.5 ms

 

Źródłem pochodzenia danych jest Instytut Meteorologii i Gospodarki Wodnej – Państwowy Instytut Badawczy. Dane Instytutu Meteorologii i Gospodarki Wodnej – Państwowego Instytutu Badawczego zostały przetworzone.

Dane źródłowe można odnaleźć na stronie https://dane.imgw.pl